Time;durP1;ratioP1;P1;durP2;ratioP2;P2;SDS_P1;SDS_P2;PMS_P1;PMS_P2;Temp;Humidity;BMP_temperature;BMP_pressure;BME280_temperature;BME280_humidity;BME280_pressure;Samples;Min_cycle;Max_cycle;Signal;HPM_P1;HPM_P2
2022/07/12 00:01:03;;;;;;;1.08;0.98;;;15.20;99.90;;;;;;5111160;28;20082;-67
2022/07/12 00:03:28;;;;;;;1.02;0.80;;;15.20;99.90;;;;;;5110697;28;20463;-67
2022/07/12 00:05:54;;;;;;;0.80;0.80;;;15.20;99.90;;;;;;5111046;28;20039;-67
2022/07/12 00:08:20;;;;;;;1.15;0.80;;;15.30;99.90;;;;;;5111912;28;20036;-67
2022/07/12 00:10:45;;;;;;;0.95;0.90;;;15.20;99.90;;;;;;5125402;28;20047;-67
2022/07/12 00:13:11;;;;;;;0.90;0.80;;;15.30;99.90;;;;;;5120001;28;20035;-67
2022/07/12 00:15:37;;;;;;;0.80;0.80;;;15.30;99.90;;;;;;5109634;28;20036;-66
2022/07/12 00:18:02;;;;;;;0.90;0.80;;;15.20;99.90;;;;;;5109521;28;20089;-66
2022/07/12 00:20:28;;;;;;;0.85;0.85;;;15.20;99.90;;;;;;5109339;28;20054;-67
2022/07/12 00:22:54;;;;;;;0.90;0.90;;;15.10;99.90;;;;;;5110458;28;20133;-67
2022/07/12 00:25:20;;;;;;;1.40;1.30;;;15.10;99.90;;;;;;5114579;28;20044;-67
2022/07/12 00:27:46;;;;;;;1.42;1.23;;;15.10;99.90;;;;;;5114989;28;20038;-67
2022/07/12 00:30:12;;;;;;;0.75;0.75;;;15.10;99.90;;;;;;5114939;28;20065;-67
2022/07/12 00:32:37;;;;;;;0.80;0.80;;;15.10;99.90;;;;;;5114597;28;20039;-67
2022/07/12 00:35:05;;;;;;;1.00;0.90;;;15.00;99.90;;;;;;5114612;28;20122;-67
2022/07/12 00:37:31;;;;;;;4.60;1.02;;;15.10;99.90;;;;;;5114542;28;20437;-67
2022/07/12 00:39:57;;;;;;;0.95;0.88;;;15.00;99.90;;;;;;5114504;28;20036;-67
2022/07/12 00:42:23;;;;;;;2.20;1.10;;;15.00;99.90;;;;;;5114243;28;20050;-67
2022/07/12 00:44:49;;;;;;;1.55;1.10;;;15.00;99.90;;;;;;5113081;28;20047;-67
2022/07/12 00:47:37;;;;;;;1.20;1.08;;;14.90;99.90;;;;;;5113372;28;20680;-68
2022/07/12 00:50:05;;;;;;;1.38;1.17;;;14.90;99.90;;;;;;5114435;28;20492;-67
2022/07/12 00:52:31;;;;;;;4.70;0.98;;;14.90;99.90;;;;;;5114039;28;20112;-67
2022/07/12 00:54:57;;;;;;;1.63;1.35;;;14.90;99.90;;;;;;5114419;28;20149;-67
2022/07/12 00:57:23;;;;;;;4.80;1.30;;;14.80;99.90;;;;;;5114184;28;20469;-67
2022/07/12 00:59:48;;;;;;;1.30;1.20;;;14.80;99.90;;;;;;5114452;28;20039;-67
2022/07/12 01:02:14;;;;;;;2.85;1.48;;;14.80;99.90;;;;;;5114171;28;20364;-67
2022/07/12 01:04:39;;;;;;;2.10;1.05;;;14.80;99.90;;;;;;5112829;28;20035;-67
2022/07/12 01:07:05;;;;;;;2.30;1.00;;;14.80;99.90;;;;;;5114030;28;20036;-67
2022/07/12 01:09:31;;;;;;;1.10;1.00;;;14.70;99.90;;;;;;5114112;28;20118;-68
2022/07/12 01:11:57;;;;;;;1.23;0.95;;;14.70;99.90;;;;;;5113543;28;20095;-68
2022/07/12 01:14:22;;;;;;;1.42;1.08;;;14.70;99.90;;;;;;5112483;28;20048;-68
2022/07/12 01:16:49;;;;;;;1.90;1.63;;;14.70;99.90;;;;;;5117155;28;20513;-67
2022/07/12 01:19:21;;;;;;;1.83;1.15;;;14.70;99.90;;;;;;5113182;28;20046;-67
2022/07/12 01:21:50;;;;;;;1.83;1.30;;;14.50;99.90;;;;;;5124283;28;20045;-68
2022/07/12 01:24:19;;;;;;;1.42;1.33;;;14.50;99.90;;;;;;5114545;28;20035;-68
2022/07/12 01:26:47;;;;;;;3.28;1.27;;;14.20;99.90;;;;;;5113829;28;20062;-67
2022/07/12 01:29:14;;;;;;;1.30;1.20;;;14.20;99.90;;;;;;5113783;28;20085;-68
2022/07/12 01:31:40;;;;;;;2.10;1.45;;;14.00;99.90;;;;;;5113724;28;20436;-67
2022/07/12 01:34:06;;;;;;;3.97;1.33;;;14.10;99.90;;;;;;5111722;28;20100;-68
2022/07/12 01:36:32;;;;;;;1.48;1.38;;;14.10;99.90;;;;;;5113720;28;20349;-67
2022/07/12 01:38:58;;;;;;;1.33;1.23;;;14.20;99.90;;;;;;5113577;28;20425;-68
2022/07/12 01:41:24;;;;;;;1.60;1.42;;;14.20;99.90;;;;;;5113580;27;20110;-67
2022/07/12 01:43:51;;;;;;;1.40;1.30;;;14.20;99.90;;;;;;5111751;28;20427;-69
2022/07/12 01:46:16;;;;;;;2.25;1.23;;;14.30;99.90;;;;;;5112158;28;20048;-67
2022/07/12 01:48:42;;;;;;;1.40;1.30;;;14.20;99.90;;;;;;5113000;28;20041;-67
2022/07/12 01:51:07;;;;;;;1.15;1.05;;;14.30;99.90;;;;;;5113381;28;20043;-67
2022/07/12 01:53:35;;;;;;;1.80;1.10;;;14.20;99.90;;;;;;5113047;28;20107;-67
2022/07/12 01:56:01;;;;;;;1.50;1.40;;;14.20;99.90;;;;;;5113165;28;20040;-67
2022/07/12 01:58:27;;;;;;;1.38;1.27;;;14.20;99.90;;;;;;5113073;28;20116;-67
2022/07/12 02:00:53;;;;;;;1.83;1.17;;;14.20;99.90;;;;;;5113221;28;20051;-67
2022/07/12 02:03:19;;;;;;;1.60;1.50;;;14.20;99.90;;;;;;5112687;28;20042;-67
2022/07/12 02:05:46;;;;;;;1.88;1.77;;;14.20;99.90;;;;;;5113041;28;20052;-67
2022/07/12 02:08:12;;;;;;;2.63;1.65;;;14.20;99.90;;;;;;5111647;28;20038;-67
2022/07/12 02:10:38;;;;;;;3.40;2.13;;;14.20;99.90;;;;;;5111661;28;20082;-68
2022/07/12 02:13:04;;;;;;;3.60;2.15;;;14.20;99.90;;;;;;5112688;28;20042;-67
2022/07/12 02:15:31;;;;;;;6.07;2.63;;;14.00;99.90;;;;;;5111134;28;20043;-67
2022/07/12 02:17:56;;;;;;;3.90;2.58;;;13.90;99.90;;;;;;5112500;28;20503;-67
2022/07/12 02:20:22;;;;;;;2.30;2.10;;;13.90;99.90;;;;;;5112553;28;20048;-67
2022/07/12 02:22:48;;;;;;;2.05;1.85;;;13.80;99.90;;;;;;5111412;28;20087;-67
2022/07/12 02:25:13;;;;;;;2.30;2.10;;;13.80;99.90;;;;;;5114830;28;20042;-66
2022/07/12 02:27:42;;;;;;;2.20;2.00;;;13.80;99.90;;;;;;5136404;28;20073;-66
2022/07/12 02:30:09;;;;;;;1.92;1.80;;;13.90;99.90;;;;;;5121377;28;20636;-67
2022/07/12 02:32:34;;;;;;;2.30;2.10;;;13.90;99.90;;;;;;5112362;28;20036;-67
2022/07/12 02:35:00;;;;;;;2.10;1.90;;;13.90;99.90;;;;;;5111323;28;20607;-67
2022/07/12 02:37:26;;;;;;;2.15;1.90;;;13.80;99.90;;;;;;5110908;28;20035;-67
2022/07/12 02:39:51;;;;;;;1.65;1.52;;;13.80;99.90;;;;;;5112327;28;20455;-67
2022/07/12 02:42:17;;;;;;;2.03;1.73;;;13.90;99.90;;;;;;5111900;28;20043;-66
2022/07/12 02:44:43;;;;;;;2.03;1.77;;;13.90;99.90;;;;;;5112154;28;20544;-66
2022/07/12 02:47:08;;;;;;;3.65;2.10;;;13.80;99.90;;;;;;5111453;27;20031;-67
2022/07/12 02:49:34;;;;;;;2.42;2.22;;;13.70;99.90;;;;;;5112255;28;20043;-67
2022/07/12 02:51:59;;;;;;;2.40;2.17;;;13.80;99.90;;;;;;5111975;28;20040;-67
2022/07/12 02:54:25;;;;;;;2.78;2.13;;;13.70;99.90;;;;;;5111846;28;20046;-66
2022/07/12 02:56:51;;;;;;;2.10;1.77;;;13.70;99.90;;;;;;5111868;28;20066;-66
2022/07/12 02:59:16;;;;;;;2.50;1.83;;;13.80;99.90;;;;;;5110677;28;20035;-67
2022/07/12 03:01:42;;;;;;;2.03;1.83;;;13.70;99.90;;;;;;5111663;28;20412;-67
2022/07/12 03:04:08;;;;;;;2.90;1.70;;;13.70;99.90;;;;;;5111274;28;20392;-66
2022/07/12 03:06:34;;;;;;;2.10;1.88;;;13.70;99.90;;;;;;5111825;28;20043;-67
2022/07/12 03:08:59;;;;;;;3.67;1.63;;;13.70;99.90;;;;;;5111802;28;20035;-67
2022/07/12 03:11:25;;;;;;;4.22;1.48;;;13.70;99.90;;;;;;5111739;28;20065;-67
2022/07/12 03:13:50;;;;;;;1.40;1.30;;;13.70;99.90;;;;;;5110600;28;20028;-67
2022/07/12 03:16:16;;;;;;;3.45;1.20;;;13.60;99.90;;;;;;5107493;28;20035;-67
2022/07/12 03:18:43;;;;;;;3.13;1.02;;;13.60;99.90;;;;;;5107012;28;20032;-67
2022/07/12 03:21:09;;;;;;;0.88;0.88;;;13.60;99.90;;;;;;5108685;28;20407;-67
2022/07/12 03:23:35;;;;;;;0.80;0.80;;;13.60;99.90;;;;;;5109744;28;20123;-69
2022/07/12 03:26:01;;;;;;;0.73;0.70;;;13.60;99.90;;;;;;5111522;28;20043;-67
2022/07/12 03:28:27;;;;;;;2.45;1.10;;;13.40;99.90;;;;;;5110844;28;20050;-67
2022/07/12 03:30:53;;;;;;;0.88;0.85;;;13.40;99.90;;;;;;5110971;28;20348;-67
2022/07/12 03:33:18;;;;;;;2.60;0.95;;;13.40;99.90;;;;;;5111615;28;20069;-67
2022/07/12 03:35:44;;;;;;;0.95;0.90;;;13.30;99.90;;;;;;5134012;28;20080;-67
2022/07/12 03:38:09;;;;;;;0.90;0.90;;;13.40;99.90;;;;;;5123886;28;20042;-67
2022/07/12 03:40:35;;;;;;;0.68;0.68;;;13.40;99.90;;;;;;5111621;28;20119;-67
2022/07/12 03:43:01;;;;;;;0.80;0.80;;;13.30;99.90;;;;;;5111009;28;20480;-67
2022/07/12 03:45:26;;;;;;;0.80;0.80;;;13.10;99.90;;;;;;5111255;28;20043;-68
2022/07/12 03:47:52;;;;;;;2.03;1.10;;;13.10;99.90;;;;;;5111080;28;20045;-67
2022/07/12 03:50:17;;;;;;;1.60;1.50;;;13.20;99.90;;;;;;5109898;28;20480;-67
2022/07/12 03:52:43;;;;;;;2.33;1.52;;;13.10;99.90;;;;;;5111090;28;20042;-67
2022/07/12 03:55:10;;;;;;;1.60;1.50;;;13.10;99.90;;;;;;5111002;28;20123;-67
2022/07/12 03:57:37;;;;;;;1.67;1.58;;;13.10;99.90;;;;;;5110928;28;20380;-67
2022/07/12 04:00:14;;;;;;;1.63;1.52;;;13.20;99.90;;;;;;5111294;28;20116;-67
2022/07/12 04:02:41;;;;;;;2.95;1.40;;;13.30;99.90;;;;;;5109285;28;20483;-67
2022/07/12 04:05:08;;;;;;;1.52;1.42;;;13.40;99.90;;;;;;5109445;28;20035;-67
2022/07/12 04:07:33;;;;;;;3.00;1.35;;;13.40;99.90;;;;;;5110905;28;20032;-67
2022/07/12 04:09:59;;;;;;;1.63;1.52;;;13.50;99.90;;;;;;5110701;28;20051;-67
2022/07/12 04:12:24;;;;;;;2.47;1.20;;;13.50;99.90;;;;;;5110365;28;20080;-67
2022/07/12 04:14:50;;;;;;;2.92;1.50;;;13.60;99.90;;;;;;5110712;28;20471;-67
2022/07/12 04:17:16;;;;;;;2.53;1.33;;;13.70;99.90;;;;;;5110550;28;20044;-67
2022/07/12 04:19:41;;;;;;;2.47;1.30;;;13.70;99.90;;;;;;5110942;28;20032;-67
2022/07/12 04:22:07;;;;;;;3.67;1.73;;;13.60;99.90;;;;;;5110637;28;20032;-67
2022/07/12 04:24:32;;;;;;;2.60;1.73;;;13.50;99.90;;;;;;5110544;28;20073;-67
2022/07/12 04:26:58;;;;;;;4.03;1.70;;;13.40;99.90;;;;;;5110530;28;20514;-67
2022/07/12 04:29:24;;;;;;;10.00;1.42;;;13.40;99.90;;;;;;5111047;28;20047;-67
2022/07/12 04:31:49;;;;;;;1.52;1.42;;;13.40;99.90;;;;;;5110704;28;20064;-67
2022/07/12 04:34:16;;;;;;;1.40;1.30;;;13.40;99.90;;;;;;5110319;28;20039;-67
2022/07/12 04:36:43;;;;;;;1.90;1.70;;;13.50;99.90;;;;;;5109251;28;20036;-67
2022/07/12 04:39:09;;;;;;;2.15;1.50;;;13.60;99.90;;;;;;5110852;28;20035;-67
2022/07/12 04:41:34;;;;;;;2.55;2.35;;;13.60;99.90;;;;;;5114630;28;20697;-67
2022/07/12 04:44:04;;;;;;;2.20;2.00;;;13.70;99.90;;;;;;5131374;28;20039;-67
2022/07/12 04:46:29;;;;;;;2.40;2.10;;;13.70;99.90;;;;;;5122633;28;20411;-67
2022/07/12 04:48:55;;;;;;;2.45;2.13;;;13.70;99.90;;;;;;5110934;28;20040;-67
2022/07/12 04:51:20;;;;;;;3.95;3.05;;;13.70;99.90;;;;;;5110529;28;20118;-68
2022/07/12 04:53:46;;;;;;;3.38;2.85;;;13.70;99.90;;;;;;5110248;28;20047;-67
2022/07/12 04:56:11;;;;;;;6.10;3.60;;;14.00;99.90;;;;;;5110323;28;20406;-67
2022/07/12 04:58:37;;;;;;;4.43;3.30;;;14.10;99.90;;;;;;5110458;28;20103;-67
2022/07/12 05:01:03;;;;;;;5.82;4.15;;;14.20;99.90;;;;;;5109353;28;20047;-67
2022/07/12 05:03:30;;;;;;;6.35;4.05;;;14.50;99.90;;;;;;5109002;28;20047;-67
2022/07/12 05:05:56;;;;;;;6.80;5.05;;;14.70;99.90;;;;;;5110486;28;20066;-68
2022/07/12 05:08:21;;;;;;;8.95;5.28;;;14.80;99.90;;;;;;5110201;28;20523;-68
2022/07/12 05:10:48;;;;;;;8.27;5.45;;;15.00;99.90;;;;;;5112752;28;20097;-67
2022/07/12 05:13:13;;;;;;;9.00;5.47;;;15.20;99.90;;;;;;5114096;28;20118;-67
2022/07/12 05:15:39;;;;;;;9.07;4.95;;;15.40;99.90;;;;;;5114060;28;20128;-67
2022/07/12 05:18:04;;;;;;;7.47;5.38;;;15.50;99.90;;;;;;5112661;28;20508;-67
2022/07/12 05:20:30;;;;;;;6.72;5.07;;;15.70;99.90;;;;;;5113780;28;20538;-67
2022/07/12 05:22:56;;;;;;;6.22;5.22;;;15.80;99.90;;;;;;5113628;28;20128;-67
2022/07/12 05:25:21;;;;;;;7.45;5.50;;;16.00;99.90;;;;;;5113597;28;20116;-67
2022/07/12 05:27:48;;;;;;;7.38;5.32;;;15.90;99.90;;;;;;5112710;28;20056;-67
2022/07/12 05:30:14;;;;;;;7.03;5.70;;;16.10;99.90;;;;;;5113773;28;20399;-67
2022/07/12 05:32:39;;;;;;;8.60;5.00;;;16.20;99.90;;;;;;5113438;28;20047;-67
2022/07/12 05:35:05;;;;;;;5.75;4.97;;;16.30;99.90;;;;;;5112187;28;20225;-67
2022/07/12 05:37:31;;;;;;;6.18;5.22;;;16.30;99.90;;;;;;5113526;28;20038;-67
2022/07/12 05:39:57;;;;;;;6.10;4.90;;;16.30;99.90;;;;;;5095065;28;20385;-67
2022/07/12 05:42:22;;;;;;;5.35;4.30;;;16.40;99.90;;;;;;5111863;28;20127;-67
2022/07/12 05:44:48;;;;;;;5.90;4.40;;;16.50;99.90;;;;;;5113330;28;20078;-67
2022/07/12 05:47:13;;;;;;;5.60;4.78;;;16.70;99.90;;;;;;5113334;28;20054;-67
2022/07/12 05:49:39;;;;;;;8.95;5.47;;;16.80;99.90;;;;;;5114034;28;20547;-67
2022/07/12 05:54:49;;;;;;;6.57;4.82;;;17.10;99.90;;;;;;5128608;28;20048;-67
2022/07/12 05:57:16;;;;;;;7.00;5.00;;;17.30;99.90;;;;;;5113544;28;20043;-67
2022/07/12 05:59:41;;;;;;;8.90;5.97;;;17.50;99.90;;;;;;5112766;28;20106;-66
2022/07/12 06:02:07;;;;;;;6.30;5.22;;;17.60;99.90;;;;;;5111584;28;20174;-67
2022/07/12 06:04:32;;;;;;;6.95;5.55;;;17.70;99.90;;;;;;5113063;28;20047;-67
2022/07/12 06:06:58;;;;;;;6.35;5.68;;;17.80;99.90;;;;;;5111557;28;20461;-67
2022/07/12 06:09:24;;;;;;;5.60;5.03;;;18.00;99.90;;;;;;5112987;28;20078;-67
2022/07/12 06:11:49;;;;;;;6.43;5.30;;;18.00;99.90;;;;;;5112615;28;20047;-67
2022/07/12 06:14:15;;;;;;;5.80;5.13;;;18.10;99.90;;;;;;5109753;28;20071;-67
2022/07/12 06:16:40;;;;;;;7.10;5.10;;;18.20;99.90;;;;;;5112602;28;20040;-67
2022/07/12 06:19:06;;;;;;;6.32;4.90;;;18.30;99.90;;;;;;5112964;28;20048;-68
2022/07/12 06:21:32;;;;;;;8.27;4.57;;;18.30;99.90;;;;;;5111523;28;20127;-68
2022/07/12 06:23:58;;;;;;;5.57;4.97;;;18.20;99.90;;;;;;5111111;28;20043;-67
2022/07/12 06:26:24;;;;;;;5.82;4.38;;;18.10;99.90;;;;;;5112562;28;20108;-68
2022/07/12 06:28:49;;;;;;;7.47;5.18;;;18.10;99.90;;;;;;5112462;28;20082;-68
2022/07/12 06:31:15;;;;;;;8.90;4.88;;;18.00;99.90;;;;;;5112723;28;20222;-69
2022/07/12 06:33:40;;;;;;;6.25;5.05;;;18.00;99.90;;;;;;5112841;28;20107;-69
2022/07/12 06:36:06;;;;;;;6.13;5.38;;;17.90;99.90;;;;;;5111204;28;20081;-68
2022/07/12 06:38:32;;;;;;;5.63;5.00;;;18.00;99.90;;;;;;5112431;28;20043;-67
2022/07/12 06:40:57;;;;;;;7.22;5.20;;;17.90;99.90;;;;;;5110965;28;20054;-68
2022/07/12 06:43:23;;;;;;;6.50;5.43;;;18.00;99.90;;;;;;5111968;28;20123;-66
2022/07/12 06:45:48;;;;;;;7.55;5.63;;;18.10;99.90;;;;;;5112070;28;20067;-67
2022/07/12 06:48:14;;;;;;;5.57;4.90;;;18.10;99.90;;;;;;5111522;28;20039;-67
2022/07/12 06:50:40;;;;;;;6.57;5.70;;;18.10;99.90;;;;;;5110668;28;20071;-67
2022/07/12 06:53:05;;;;;;;7.05;5.07;;;18.20;99.90;;;;;;5111843;28;20096;-69
2022/07/12 06:55:31;;;;;;;5.57;3.63;;;18.20;99.90;;;;;;5112322;28;20042;-68
2022/07/12 06:57:57;;;;;;;5.13;4.60;;;18.30;99.90;;;;;;5113272;28;20135;-68
2022/07/12 07:00:22;;;;;;;5.90;4.97;;;18.30;99.90;;;;;;5129952;28;20032;-67
2022/07/12 07:02:48;;;;;;;7.38;6.05;;;18.30;99.90;;;;;;5129379;28;20044;-68
2022/07/12 07:05:15;;;;;;;7.43;6.50;;;18.30;99.90;;;;;;5111441;28;20494;-68
2022/07/12 07:07:41;;;;;;;7.88;5.72;;;18.30;99.90;;;;;;5112166;28;20039;-68
2022/07/12 07:10:07;;;;;;;5.97;5.15;;;18.40;99.90;;;;;;5111972;28;20092;-68
2022/07/12 07:12:32;;;;;;;6.15;4.80;;;18.40;99.90;;;;;;5111479;28;20093;-68
2022/07/12 07:14:58;;;;;;;6.30;5.40;;;18.40;99.90;;;;;;5111702;28;20044;-72
2022/07/12 07:17:23;;;;;;;6.80;6.10;;;18.60;99.90;;;;;;5110426;28;20403;-72
2022/07/12 07:19:49;;;;;;;6.80;5.60;;;18.60;99.90;;;;;;5110185;28;20096;-73
2022/07/12 07:22:14;;;;;;;6.47;5.68;;;18.70;99.90;;;;;;5111401;28;20135;-73
2022/07/12 07:24:41;;;;;;;10.45;5.38;;;18.90;99.90;;;;;;5111501;28;20395;-72
2022/07/12 07:27:07;;;;;;;8.65;5.57;;;18.90;99.90;;;;;;5110294;28;20085;-73
2022/07/12 07:32:17;;;;;;;7.50;6.22;;;19.00;99.90;;;;;;5111084;28;20047;-74
2022/07/12 07:34:42;;;;;;;7.18;5.97;;;19.10;99.90;;;;;;5110262;28;20043;-72
2022/07/12 07:37:08;;;;;;;7.55;6.43;;;19.20;99.90;;;;;;5111193;28;20035;-73
2022/07/12 07:39:34;;;;;;;6.88;6.18;;;19.20;99.90;;;;;;5109909;28;20032;-73
2022/07/12 07:42:01;;;;;;;8.88;6.15;;;19.40;99.90;;;;;;5110078;28;20126;-73
2022/07/12 07:44:26;;;;;;;9.77;6.00;;;19.60;99.90;;;;;;5110998;28;20038;-73
2022/07/12 07:46:52;;;;;;;11.75;5.93;;;19.70;99.90;;;;;;5111439;28;20119;-72
2022/07/12 07:49:17;;;;;;;6.28;5.68;;;19.80;99.90;;;;;;5110925;28;20364;-72
2022/07/12 07:51:43;;;;;;;10.15;6.10;;;19.90;99.90;;;;;;5111424;28;20391;-74
2022/07/12 07:54:08;;;;;;;6.57;5.97;;;20.10;99.90;;;;;;5110869;28;20456;-73
2022/07/12 07:56:34;;;;;;;7.65;5.22;;;20.20;99.90;;;;;;5110882;28;20130;-72
2022/07/12 07:58:59;;;;;;;6.18;4.80;;;20.30;99.90;;;;;;5111695;28;20031;-73
2022/07/12 08:01:42;;;;;;;5.68;5.18;;;20.50;99.90;;;;;;5111808;28;20035;-73
2022/07/12 08:04:18;;;;;;;5.20;4.70;;;20.60;99.90;;;;;;5110091;28;20083;-73
2022/07/12 08:06:44;;;;;;;6.03;4.13;;;20.60;99.90;;;;;;5113066;28;20057;-72
2022/07/12 08:09:10;;;;;;;6.20;4.80;;;20.60;99.90;;;;;;5133577;28;20033;-73
2022/07/12 08:11:36;;;;;;;4.90;4.40;;;20.70;99.90;;;;;;5124138;28;20440;-73
2022/07/12 08:14:05;;;;;;;5.70;5.20;;;20.60;99.90;;;;;;5111386;28;20039;-72
2022/07/12 08:16:32;;;;;;;4.40;3.97;;;20.70;99.90;;;;;;5109337;28;20576;-72
2022/07/12 08:18:58;;;;;;;8.32;4.95;;;20.80;99.90;;;;;;5109153;28;20047;-72
2022/07/12 08:21:24;;;;;;;5.18;4.65;;;20.90;99.90;;;;;;5110695;28;20080;-73
2022/07/12 08:23:50;;;;;;;5.80;5.20;;;21.10;99.90;;;;;;5109137;28;20119;-73
2022/07/12 08:26:16;;;;;;;7.93;4.65;;;21.10;99.90;;;;;;5109319;28;20043;-72
2022/07/12 08:28:41;;;;;;;6.38;4.70;;;21.10;99.90;;;;;;5110521;28;20122;-72
2022/07/12 08:31:07;;;;;;;6.68;5.25;;;21.30;99.90;;;;;;5109131;28;20039;-73
2022/07/12 08:33:33;;;;;;;6.00;5.05;;;21.20;99.90;;;;;;5108978;28;20043;-73
2022/07/12 08:35:58;;;;;;;4.95;4.45;;;21.40;99.90;;;;;;5109128;28;20569;-73
2022/07/12 08:38:24;;;;;;;5.32;4.38;;;21.30;99.90;;;;;;5110424;28;20142;-71
2022/07/12 08:40:49;;;;;;;6.03;4.18;;;21.30;99.90;;;;;;5110339;28;20114;-72
2022/07/12 08:43:15;;;;;;;5.57;4.65;;;21.50;99.90;;;;;;5110349;28;20032;-71
2022/07/12 08:45:41;;;;;;;6.30;4.13;;;21.60;99.90;;;;;;5112096;28;20380;-71
2022/07/12 08:48:09;;;;;;;4.80;4.28;;;21.60;99.90;;;;;;5114514;28;20058;-71
2022/07/12 08:50:35;;;;;;;5.45;4.07;;;21.70;99.90;;;;;;5113090;28;20032;-71
2022/07/12 08:53:01;;;;;;;4.65;4.10;;;21.70;99.90;;;;;;5095977;28;20377;-71
2022/07/12 08:55:34;;;;;;;4.30;3.60;;;21.90;99.90;;;;;;5113020;28;20035;-71
2022/07/12 08:58:03;;;;;;;4.30;3.90;;;21.90;99.90;;;;;;5114508;28;20047;-72
2022/07/12 09:00:29;;;;;;;5.00;4.05;;;22.00;99.90;;;;;;5114473;28;20059;-71
2022/07/12 09:02:56;;;;;;;5.15;4.18;;;21.90;99.90;;;;;;5114072;28;20077;-71
2022/07/12 09:05:30;;;;;;;7.32;4.40;;;22.00;99.90;;;;;;5113726;28;20062;-72
2022/07/12 09:08:03;;;;;;;5.22;4.30;;;22.00;99.90;;;;;;5114091;28;20115;-71
2022/07/12 09:10:29;;;;;;;5.03;3.40;;;22.10;99.90;;;;;;5114544;28;20036;-70
2022/07/12 09:12:54;;;;;;;4.20;3.78;;;22.10;99.90;;;;;;5114412;27;20050;-71
2022/07/12 09:15:24;;;;;;;4.43;3.45;;;21.90;99.90;;;;;;5119556;28;20031;-71
2022/07/12 09:17:58;;;;;;;5.53;3.83;;;22.00;99.90;;;;;;5137979;28;20019;-71
2022/07/12 09:20:29;;;;;;;4.78;3.00;;;22.10;99.90;;;;;;5118213;28;20043;-71
2022/07/12 09:23:04;;;;;;;5.38;2.95;;;22.20;99.90;;;;;;5113997;28;20036;-70
2022/07/12 09:25:31;;;;;;;5.13;3.60;;;22.40;99.90;;;;;;5112324;28;20044;-70
2022/07/12 09:27:58;;;;;;;4.65;3.35;;;22.40;99.90;;;;;;5112413;28;20445;-70
2022/07/12 09:30:28;;;;;;;5.22;2.80;;;22.40;99.90;;;;;;5113604;28;20089;-70
2022/07/12 09:36:12;;;;;;;3.22;2.80;;;22.40;99.90;;;;;;5113237;28;20475;-70
2022/07/12 09:38:48;;;;;;;3.08;2.78;;;22.50;99.90;;;;;;5113002;28;20088;-70
2022/07/12 09:41:17;;;;;;;3.50;2.70;;;22.40;99.90;;;;;;5111850;28;20480;-70
2022/07/12 09:43:44;;;;;;;3.13;2.75;;;22.40;99.90;;;;;;5112658;28;20561;-71
2022/07/12 09:46:10;;;;;;;3.75;2.70;;;22.40;99.90;;;;;;5113087;28;20094;-71
2022/07/12 09:48:37;;;;;;;3.70;2.90;;;22.50;99.90;;;;;;5112823;28;20134;-71
2022/07/12 09:51:04;;;;;;;3.88;3.25;;;22.60;99.90;;;;;;5112699;28;20431;-71
2022/07/12 09:53:38;;;;;;;4.30;3.40;;;22.70;99.90;;;;;;5112835;28;20035;-72
2022/07/12 09:56:06;;;;;;;3.03;2.33;;;22.80;99.90;;;;;;5111150;28;20040;-72
2022/07/12 09:58:40;;;;;;;3.95;2.40;;;22.80;99.90;;;;;;5112872;28;20055;-71
2022/07/12 10:01:07;;;;;;;2.75;2.10;;;22.70;99.90;;;;;;5112601;28;20039;-72
2022/07/12 10:03:35;;;;;;;3.25;2.00;;;22.80;99.90;;;;;;5111058;28;20089;-71
2022/07/12 10:06:02;;;;;;;5.45;2.90;;;22.80;99.90;;;;;;5112437;28;20054;-71
2022/07/12 10:08:29;;;;;;;3.45;2.75;;;22.80;99.90;;;;;;5112702;28;20086;-71
2022/07/12 10:10:55;;;;;;;3.22;2.92;;;23.00;99.90;;;;;;5112550;28;20653;-72
2022/07/12 10:13:21;;;;;;;3.47;2.85;;;23.10;99.90;;;;;;5112292;28;20152;-71
2022/07/12 10:15:48;;;;;;;4.47;2.63;;;23.10;99.90;;;;;;5110755;28;20114;-71
2022/07/12 10:18:21;;;;;;;2.70;2.35;;;23.10;99.90;;;;;;5110911;28;20093;-71
2022/07/12 10:20:48;;;;;;;3.25;2.95;;;23.30;99.90;;;;;;5110893;28;20067;-71
2022/07/12 10:23:20;;;;;;;3.97;3.00;;;23.20;99.90;;;;;;5090914;28;20043;-71
2022/07/12 10:25:49;;;;;;;7.20;2.67;;;23.10;99.90;;;;;;5133915;28;20169;-72
2022/07/12 10:28:15;;;;;;;2.83;2.42;;;23.20;99.90;;;;;;5120234;28;20039;-72
2022/07/12 10:30:47;;;;;;;2.92;2.58;;;23.20;99.90;;;;;;5114229;28;20035;-72
2022/07/12 10:33:21;;;;;;;3.50;2.40;;;23.10;99.90;;;;;;5094047;28;20065;-71
2022/07/12 10:36:01;;;;;;;3.65;2.58;;;23.30;99.90;;;;;;5110781;28;20040;-72
2022/07/12 10:38:27;;;;;;;2.97;2.22;;;23.30;99.90;;;;;;5110955;28;20047;-71
2022/07/12 10:40:53;;;;;;;2.88;2.28;;;23.40;99.90;;;;;;5112478;28;20673;-73
2022/07/12 10:46:18;;;;;;;2.63;2.00;;;23.50;99.90;;;;;;5112106;28;20047;-73
2022/07/12 10:48:44;;;;;;;3.67;1.88;;;23.50;99.90;;;;;;5085909;28;20040;-74
2022/07/12 10:51:15;;;;;;;4.65;2.55;;;23.60;99.90;;;;;;5082016;28;20484;-72
2022/07/12 10:53:42;;;;;;;2.53;1.83;;;23.60;99.90;;;;;;5079240;28;20348;-68
2022/07/12 10:56:14;;;;;;;5.00;2.70;;;23.60;99.90;;;;;;5079971;28;20115;-69
2022/07/12 10:58:44;;;;;;;;;;;23.80;99.90;;;;;;5079500;28;20042;-69
2022/07/12 11:01:20;;;;;;;2.22;1.48;;;23.80;99.90;;;;;;5081681;28;19959;-70
2022/07/12 11:03:49;;;;;;;4.43;1.80;;;24.00;99.90;;;;;;5081005;28;20519;-70
2022/07/12 11:06:21;;;;;;;3.92;1.88;;;23.90;99.90;;;;;;5078235;28;20098;-70
2022/07/12 11:09:08;;;;;;;1.88;1.48;;;23.90;99.90;;;;;;5079357;28;20101;-70
2022/07/12 11:11:42;;;;;;;3.58;1.80;;;24.00;99.90;;;;;;5079762;28;20037;-70
2022/07/12 11:14:07;;;;;;;2.45;1.63;;;24.00;99.90;;;;;;5079237;28;20116;-70
2022/07/12 11:16:33;;;;;;;2.38;1.60;;;23.90;99.90;;;;;;5081047;28;20548;-70
2022/07/12 11:18:58;;;;;;;3.88;1.08;;;24.00;99.90;;;;;;5080197;28;20094;-70
2022/07/12 11:21:25;;;;;;;1.20;1.10;;;24.20;99.90;;;;;;5066706;28;20083;-70
2022/07/12 11:23:51;;;;;;;1.70;1.13;;;24.20;99.90;;;;;;5090631;28;20216;-69
2022/07/12 11:26:17;;;;;;;2.17;1.42;;;24.30;99.90;;;;;;5090653;28;20040;-68
2022/07/12 11:28:44;;;;;;;1.20;1.05;;;24.20;99.90;;;;;;5090829;28;20416;-68
2022/07/12 11:31:15;;;;;;;2.92;1.30;;;24.30;99.90;;;;;;5073638;28;20132;-69
2022/07/12 11:33:43;;;;;;;3.05;1.40;;;24.50;99.90;;;;;;5104846;28;20040;-68
2022/07/12 11:36:10;;;;;;;3.97;1.33;;;24.50;99.90;;;;;;5103648;28;20507;-68
2022/07/12 11:38:37;;;;;;;2.13;1.40;;;24.60;99.90;;;;;;5090862;28;20059;-69
2022/07/12 11:41:05;;;;;;;1.90;1.08;;;24.60;99.90;;;;;;5090527;28;20051;-69
2022/07/12 11:43:32;;;;;;;1.08;0.98;;;24.70;99.90;;;;;;5090041;28;20044;-69
2022/07/12 11:45:58;;;;;;;1.20;0.90;;;24.90;99.90;;;;;;5089954;28;20044;-68
2022/07/12 11:48:24;;;;;;;0.98;0.85;;;25.00;99.90;;;;;;5090222;28;20039;-69
2022/07/12 11:50:52;;;;;;;1.27;1.10;;;25.00;99.90;;;;;;5090432;28;20043;-69
2022/07/12 11:53:19;;;;;;;2.22;1.10;;;25.10;99.90;;;;;;5090363;28;20052;-69
2022/07/12 11:55:46;;;;;;;1.00;0.90;;;25.10;99.90;;;;;;5089034;28;20058;-69
2022/07/12 11:58:14;;;;;;;1.30;1.20;;;25.10;99.90;;;;;;5090149;28;20040;-69
2022/07/12 12:00:40;;;;;;;1.20;0.77;;;25.20;99.90;;;;;;5090332;28;20066;-69
2022/07/12 12:03:05;;;;;;;1.50;0.80;;;25.30;99.90;;;;;;5090007;28;20480;-69
2022/07/12 12:05:33;;;;;;;0.70;0.70;;;25.20;99.90;;;;;;5090536;28;20062;-73
2022/07/12 12:07:58;;;;;;;1.88;0.80;;;25.30;99.90;;;;;;5090659;28;20093;-72
2022/07/12 12:10:24;;;;;;;1.23;0.85;;;25.30;99.90;;;;;;5072415;28;20056;-73
2022/07/12 12:12:53;;;;;;;2.65;0.90;;;25.30;99.90;;;;;;5089474;28;20043;-74
2022/07/12 12:15:21;;;;;;;3.33;0.98;;;25.50;99.90;;;;;;5089342;28;20511;-73
2022/07/12 12:17:54;;;;;;;1.15;0.80;;;25.50;99.90;;;;;;5089164;28;20491;-73
2022/07/12 12:20:21;;;;;;;2.05;0.85;;;25.50;99.90;;;;;;5092563;28;20154;-73
2022/07/12 12:22:49;;;;;;;1.95;0.77;;;25.50;99.90;;;;;;5094434;28;20054;-73
2022/07/12 12:25:15;;;;;;;0.85;0.75;;;25.50;99.90;;;;;;5093253;28;20043;-73
2022/07/12 12:27:43;;;;;;;1.20;0.80;;;25.60;99.90;;;;;;5093342;28;20040;-71
2022/07/12 12:30:10;;;;;;;0.70;0.70;;;25.60;99.90;;;;;;5094510;28;20059;-70
2022/07/12 12:32:57;;;;;;;1.30;0.65;;;25.70;99.90;;;;;;5094332;28;20047;-72
2022/07/12 12:35:30;;;;;;;1.65;0.90;;;25.80;99.90;;;;;;5094314;28;20048;-70
2022/07/12 12:37:58;;;;;;;0.90;0.90;;;25.70;99.90;;;;;;5094257;28;20054;-70
2022/07/12 12:40:26;;;;;;;1.10;0.80;;;25.70;99.90;;;;;;5097208;28;20048;-69
2022/07/12 12:42:52;;;;;;;2.63;0.68;;;25.80;99.90;;;;;;5113892;28;20043;-70
2022/07/12 12:45:24;;;;;;;1.38;0.50;;;25.80;99.90;;;;;;5102211;28;20036;-70
2022/07/12 12:47:55;;;;;;;1.30;0.50;;;25.90;99.90;;;;;;5094291;28;20032;-70
2022/07/12 12:50:48;;;;;;;0.40;0.40;;;26.10;99.90;;;;;;5092562;28;20044;-68
2022/07/12 12:53:24;;;;;;;2.35;0.47;;;26.00;99.90;;;;;;5091780;28;20055;-69
2022/07/12 12:55:52;;;;;;;0.60;0.50;;;25.90;99.90;;;;;;5104000;28;20122;-69
2022/07/12 12:58:19;;;;;;;1.48;0.40;;;26.00;99.90;;;;;;5114215;28;20039;-68